createdAt,value
2022-09-15T00:01:16.274Z,3.30
2022-09-15T00:03:44.669Z,3.78
2022-09-15T00:06:13.094Z,3.30
2022-09-15T00:08:40.860Z,6.38
2022-09-15T00:11:12.862Z,3.75
2022-09-15T00:13:41.229Z,3.65
2022-09-15T00:16:14.624Z,5.03
2022-09-15T00:18:43.438Z,5.55
2022-09-15T00:21:18.042Z,3.55
2022-09-15T00:23:46.235Z,4.20
2022-09-15T00:26:16.605Z,4.20
2022-09-15T00:28:45.258Z,5.45
2022-09-15T00:31:17.374Z,3.90
2022-09-15T00:33:48.522Z,6.28
2022-09-15T00:36:17.266Z,5.22
2022-09-15T00:38:45.482Z,5.07
2022-09-15T00:41:19.893Z,5.68
2022-09-15T00:44:24.828Z,4.25
2022-09-15T00:47:09.672Z,3.72
2022-09-15T00:49:42.757Z,5.25
2022-09-15T00:52:34.153Z,7.43
2022-09-15T00:55:24.404Z,5.90
2022-09-15T00:57:55.525Z,7.20
2022-09-15T01:03:18.033Z,6.22
2022-09-15T01:05:48.869Z,7.10
2022-09-15T01:08:50.217Z,6.15
2022-09-15T01:11:18.205Z,4.10
2022-09-15T01:13:45.999Z,5.78
2022-09-15T01:19:52.865Z,4.90
2022-09-15T01:22:59.519Z,6.07
2022-09-15T01:25:33.327Z,6.45
2022-09-15T01:28:30.438Z,3.42
2022-09-15T01:31:06.137Z,5.80
2022-09-15T01:33:55.274Z,5.57
2022-09-15T01:36:28.484Z,3.22
2022-09-15T01:39:23.062Z,3.78
2022-09-15T01:41:55.064Z,5.65
2022-09-15T01:44:29.882Z,4.88
2022-09-15T01:47:00.660Z,2.97
2022-09-15T01:49:49.285Z,4.13
2022-09-15T01:52:18.920Z,3.92
2022-09-15T01:54:49.414Z,4.97
2022-09-15T01:57:21.425Z,5.07
2022-09-15T01:59:51.713Z,4.97
2022-09-15T02:02:34.335Z,3.80
2022-09-15T02:05:16.726Z,5.00
2022-09-15T02:08:05.824Z,7.05
2022-09-15T02:10:37.569Z,4.80
2022-09-15T02:13:17.286Z,3.40
2022-09-15T02:15:51.911Z,4.22
2022-09-15T02:18:28.824Z,4.78
2022-09-15T02:21:03.060Z,3.70
2022-09-15T02:23:38.226Z,4.85
2022-09-15T02:26:09.081Z,4.15
2022-09-15T02:28:39.983Z,5.65
2022-09-15T02:31:10.838Z,5.03
2022-09-15T02:33:44.384Z,6.05
2022-09-15T02:36:14.774Z,6.35
2022-09-15T02:38:56.202Z,8.95
2022-09-15T02:41:24.579Z,5.65
2022-09-15T02:43:52.470Z,7.00
2022-09-15T02:46:21.908Z,6.20
2022-09-15T02:48:50.459Z,9.40
2022-09-15T02:51:19.340Z,5.18
2022-09-15T02:53:47.209Z,5.10
2022-09-15T02:56:16.783Z,5.35
2022-09-15T02:58:44.851Z,5.75
2022-09-15T03:01:17.725Z,4.22
2022-09-15T03:03:46.630Z,4.43
2022-09-15T03:06:17.696Z,5.43
2022-09-15T03:08:51.049Z,3.55
2022-09-15T03:11:21.190Z,5.90
2022-09-15T03:13:49.713Z,3.85
2022-09-15T03:16:17.597Z,3.30
2022-09-15T03:18:45.780Z,2.25
2022-09-15T03:21:14.903Z,2.33
2022-09-15T03:23:43.321Z,2.30
2022-09-15T03:26:11.860Z,1.52
2022-09-15T03:28:40.423Z,3.45
2022-09-15T03:31:09.083Z,3.80
2022-09-15T03:33:37.419Z,5.75
2022-09-15T03:36:07.099Z,5.50
2022-09-15T03:38:35.000Z,5.47
2022-09-15T03:41:04.207Z,4.68
2022-09-15T03:43:33.019Z,5.20
2022-09-15T03:46:01.644Z,4.80
2022-09-15T03:48:32.536Z,4.97
2022-09-15T03:51:00.322Z,4.57
2022-09-15T03:53:28.089Z,7.03
2022-09-15T03:55:55.964Z,5.63
2022-09-15T03:58:26.811Z,6.07
2022-09-15T04:00:57.226Z,6.15
2022-09-15T04:03:25.451Z,7.93
2022-09-15T04:05:53.573Z,5.65
2022-09-15T04:08:21.495Z,6.13
2022-09-15T04:10:49.319Z,8.63
2022-09-15T04:13:17.181Z,7.82
2022-09-15T04:15:45.167Z,8.38
2022-09-15T04:18:13.055Z,4.57
2022-09-15T04:20:41.095Z,7.75
2022-09-15T04:23:08.900Z,5.07
2022-09-15T04:25:36.817Z,5.57
2022-09-15T04:28:04.895Z,4.47
2022-09-15T04:30:32.868Z,5.22
2022-09-15T04:33:03.594Z,6.70
2022-09-15T04:35:31.274Z,5.72
2022-09-15T04:38:00.418Z,6.45
2022-09-15T04:40:28.438Z,7.40
2022-09-15T04:42:56.576Z,5.90
2022-09-15T04:45:24.307Z,9.77
2022-09-15T04:47:53.577Z,5.95
2022-09-15T04:50:21.357Z,8.68
2022-09-15T04:52:49.268Z,8.00
2022-09-15T04:55:18.084Z,10.88
2022-09-15T04:57:46.964Z,9.85
2022-09-15T05:00:15.357Z,10.45
2022-09-15T05:02:43.241Z,9.75
2022-09-15T05:05:10.979Z,7.85
2022-09-15T05:07:38.808Z,13.32
2022-09-15T05:10:07.138Z,8.98
2022-09-15T05:12:35.058Z,8.68
2022-09-15T05:15:03.055Z,8.75
2022-09-15T05:17:34.612Z,11.73
2022-09-15T05:22:30.155Z,11.85
2022-09-15T05:24:58.336Z,14.10
2022-09-15T05:27:26.620Z,10.60
2022-09-15T05:30:16.206Z,11.77
2022-09-15T05:32:43.029Z,12.95
2022-09-15T05:35:10.913Z,16.15
2022-09-15T05:37:38.677Z,14.18
2022-09-15T05:40:08.702Z,19.15
2022-09-15T05:42:36.684Z,15.32
2022-09-15T05:45:04.889Z,15.35
2022-09-15T05:47:33.059Z,15.35
2022-09-15T05:50:00.845Z,15.35
2022-09-15T05:52:28.664Z,15.32
2022-09-15T05:54:59.114Z,15.68
2022-09-15T05:57:27.391Z,14.85
2022-09-15T05:59:55.262Z,14.00
2022-09-15T06:02:23.107Z,15.98
2022-09-15T06:04:51.015Z,14.50
2022-09-15T06:07:18.946Z,15.50
2022-09-15T06:09:46.628Z,15.95
2022-09-15T06:12:14.663Z,16.42
2022-09-15T06:14:44.653Z,16.58
2022-09-15T06:17:12.419Z,17.85
2022-09-15T06:19:40.547Z,14.18
2022-09-15T06:22:08.418Z,15.80
2022-09-15T06:24:36.238Z,18.23
2022-09-15T06:27:04.619Z,22.55
2022-09-15T06:29:32.738Z,14.75
2022-09-15T06:32:03.025Z,15.77
2022-09-15T06:34:33.549Z,60.30
2022-09-15T06:37:01.565Z,129.43
2022-09-15T06:39:29.400Z,35.90
2022-09-15T06:42:05.817Z,19.30
2022-09-15T06:44:35.875Z,19.25
2022-09-15T06:47:04.385Z,12.18
2022-09-15T06:49:32.325Z,17.48
2022-09-15T06:52:02.669Z,12.00
2022-09-15T06:54:31.469Z,16.30
2022-09-15T06:56:59.255Z,11.95
2022-09-15T06:59:27.197Z,14.10
2022-09-15T07:01:55.548Z,14.35
2022-09-15T07:04:23.751Z,10.57
2022-09-15T07:06:51.578Z,11.48
2022-09-15T07:09:19.860Z,10.82
2022-09-15T07:11:47.836Z,11.93
2022-09-15T07:14:15.669Z,10.57
2022-09-15T07:16:43.546Z,10.63
2022-09-15T07:19:11.297Z,11.05
2022-09-15T07:21:39.101Z,10.35
2022-09-15T07:24:07.839Z,10.52
2022-09-15T07:26:37.255Z,11.82
2022-09-15T07:29:07.171Z,9.35
2022-09-15T07:31:36.758Z,9.63
2022-09-15T07:34:04.960Z,8.43
2022-09-15T07:36:35.483Z,10.38
2022-09-15T07:39:05.073Z,11.75
2022-09-15T07:41:33.331Z,7.82
2022-09-15T07:44:01.612Z,9.35
2022-09-15T07:46:32.322Z,10.48
2022-09-15T07:49:00.984Z,7.72
2022-09-15T07:51:28.811Z,8.93
2022-09-15T07:53:56.596Z,11.82
2022-09-15T07:56:24.790Z,12.60
2022-09-15T07:58:53.177Z,8.25
2022-09-15T08:01:23.964Z,8.52
2022-09-15T08:03:52.986Z,9.05
2022-09-15T08:06:23.580Z,10.00
2022-09-15T08:08:57.772Z,9.35
2022-09-15T08:11:28.555Z,9.07
2022-09-15T08:13:56.393Z,9.57
2022-09-15T08:16:25.552Z,10.38
2022-09-15T08:18:54.356Z,10.32
2022-09-15T08:21:22.857Z,7.63
2022-09-15T08:23:56.314Z,7.10
2022-09-15T08:26:25.431Z,9.40
2022-09-15T08:28:53.635Z,8.10
2022-09-15T08:31:21.860Z,9.48
2022-09-15T08:33:51.623Z,9.10
2022-09-15T08:36:20.365Z,7.72
2022-09-15T08:38:48.744Z,10.93
2022-09-15T08:41:38.089Z,7.13
2022-09-15T08:44:32.576Z,8.52
2022-09-15T08:47:34.238Z,8.80
2022-09-15T08:50:27.663Z,6.97
2022-09-15T08:52:59.559Z,9.52
2022-09-15T08:55:27.584Z,6.45
2022-09-15T08:57:55.742Z,6.57
2022-09-15T09:00:23.716Z,6.15
2022-09-15T09:03:06.841Z,8.82
2022-09-15T09:06:13.138Z,6.63
2022-09-15T09:09:11.334Z,6.32
2022-09-15T09:11:47.870Z,8.45
2022-09-15T09:14:21.830Z,4.20
2022-09-15T09:17:11.477Z,4.28
2022-09-15T09:20:00.006Z,5.40
2022-09-15T09:22:34.880Z,5.82
2022-09-15T09:25:21.267Z,6.85
2022-09-15T09:27:52.498Z,3.38
2022-09-15T09:30:24.733Z,4.55
2022-09-15T09:33:18.529Z,3.92
2022-09-15T09:35:49.619Z,5.15
2022-09-15T09:38:22.400Z,4.05
2022-09-15T09:40:50.860Z,2.92
2022-09-15T09:43:19.028Z,3.75
2022-09-15T09:45:47.122Z,3.55
2022-09-15T09:48:23.234Z,4.93
2022-09-15T09:50:51.640Z,3.22
2022-09-15T09:53:26.484Z,6.93
2022-09-15T09:55:55.733Z,2.45
2022-09-15T09:58:25.713Z,7.90
2022-09-15T10:00:57.005Z,4.10
2022-09-15T10:03:30.756Z,1.98
2022-09-15T10:06:14.415Z,2.42
2022-09-15T10:08:59.624Z,4.50
2022-09-15T10:11:50.033Z,3.97
2022-09-15T10:14:24.166Z,2.07
2022-09-15T10:17:15.044Z,4.57
2022-09-15T10:19:47.455Z,3.40
2022-09-15T10:22:39.968Z,3.65
2022-09-15T10:25:23.272Z,7.90
2022-09-15T10:28:10.087Z,2.75
2022-09-15T10:30:38.497Z,5.25
2022-09-15T10:33:27.640Z,3.80
2022-09-15T10:36:00.295Z,3.00
2022-09-15T10:38:46.244Z,1.70
2022-09-15T10:41:31.786Z,2.40
2022-09-15T10:44:11.849Z,3.40
2022-09-15T10:47:11.673Z,4.05
2022-09-15T10:49:39.714Z,2.92
2022-09-15T10:52:29.162Z,4.13
2022-09-15T10:55:24.795Z,4.90
2022-09-15T10:58:55.988Z,5.00
2022-09-15T11:01:30.067Z,3.30
2022-09-15T11:04:33.273Z,3.30
2022-09-15T11:07:26.410Z,2.60
2022-09-15T11:10:25.110Z,4.00
2022-09-15T11:13:32.180Z,3.63
2022-09-15T11:16:09.129Z,2.45
2022-09-15T11:19:00.049Z,2.30
2022-09-15T11:21:38.395Z,4.70
2022-09-15T11:24:22.477Z,6.82
2022-09-15T11:27:08.522Z,2.15
2022-09-15T11:29:50.040Z,1.33
2022-09-15T11:32:25.064Z,2.00
2022-09-15T11:35:02.326Z,1.73
2022-09-15T11:37:50.939Z,2.42
2022-09-15T11:40:29.719Z,1.25
2022-09-15T11:43:16.687Z,2.85
2022-09-15T11:45:52.158Z,2.88
2022-09-15T11:48:45.784Z,3.10
2022-09-15T11:51:16.431Z,2.17
2022-09-15T11:53:54.480Z,4.90
2022-09-15T11:56:41.585Z,2.42
2022-09-15T11:59:29.634Z,3.65
2022-09-15T12:02:16.698Z,2.42
2022-09-15T12:05:16.018Z,3.83
2022-09-15T12:08:21.734Z,1.20
2022-09-15T12:10:55.806Z,3.28
2022-09-15T12:13:25.731Z,2.42
2022-09-15T12:15:54.295Z,2.33
2022-09-15T12:18:46.972Z,3.90
2022-09-15T12:21:39.661Z,3.70
2022-09-15T12:24:28.423Z,1.20
2022-09-15T12:26:56.174Z,4.28
2022-09-15T12:29:26.941Z,3.70
2022-09-15T12:32:17.708Z,2.25
2022-09-15T12:35:17.845Z,3.10
2022-09-15T12:38:01.318Z,2.00
2022-09-15T12:40:36.657Z,2.42
2022-09-15T12:43:25.871Z,3.47
2022-09-15T12:45:56.978Z,2.78
2022-09-15T12:48:31.165Z,3.53
2022-09-15T12:51:12.897Z,2.05
2022-09-15T12:54:04.880Z,4.35
2022-09-15T12:56:33.993Z,2.72
2022-09-15T12:59:07.071Z,2.50
2022-09-15T13:01:50.846Z,1.67
2022-09-15T13:04:43.803Z,3.60
2022-09-15T13:07:20.031Z,2.28
2022-09-15T13:10:17.154Z,6.13
2022-09-15T13:12:52.316Z,3.47
2022-09-15T13:15:20.260Z,2.80
2022-09-15T13:17:48.495Z,2.88
2022-09-15T13:20:22.024Z,2.83
2022-09-15T13:22:52.248Z,2.80
2022-09-15T13:25:24.277Z,1.07
2022-09-15T13:28:00.510Z,2.35
2022-09-15T13:30:46.821Z,7.22
2022-09-15T13:40:18.460Z,3.50
2022-09-15T13:43:10.971Z,9.88
2022-09-15T13:45:54.780Z,2.10
2022-09-15T13:48:47.845Z,2.75
2022-09-15T13:51:28.081Z,1.75
2022-09-15T13:54:00.380Z,3.00
2022-09-15T13:56:32.288Z,8.23
2022-09-15T13:59:08.277Z,3.05
2022-09-15T14:01:39.509Z,4.38
2022-09-15T14:04:17.011Z,1.63
2022-09-15T14:06:47.617Z,6.22
2022-09-15T14:09:27.603Z,1.10
2022-09-15T14:11:58.647Z,2.55
2022-09-15T14:14:39.482Z,2.55
2022-09-15T14:17:22.736Z,3.63
2022-09-15T14:19:52.129Z,4.55
2022-09-15T14:22:28.874Z,1.58
2022-09-15T14:24:57.935Z,2.13
2022-09-15T14:27:30.538Z,3.10
2022-09-15T14:30:03.442Z,2.65
2022-09-15T14:32:37.156Z,2.80
2022-09-15T14:35:09.672Z,1.42
2022-09-15T14:37:37.493Z,2.08
2022-09-15T14:40:25.718Z,1.55
2022-09-15T14:42:53.823Z,2.78
2022-09-15T15:09:33.747Z,4.20
2022-09-15T15:12:31.153Z,2.95
2022-09-15T15:15:00.575Z,3.25
2022-09-15T15:17:53.003Z,5.30
2022-09-15T15:20:27.210Z,1.75
2022-09-15T15:23:15.825Z,4.97
2022-09-15T15:25:44.004Z,0.50
2022-09-15T15:28:31.131Z,3.00
2022-09-15T15:31:23.075Z,3.55
2022-09-15T15:33:59.502Z,3.65
2022-09-15T15:36:28.813Z,2.38
2022-09-15T15:38:57.499Z,2.45
2022-09-15T15:41:30.903Z,3.92
2022-09-15T15:44:03.298Z,3.25
2022-09-15T15:47:11.279Z,3.20
2022-09-15T15:49:46.313Z,2.63
2022-09-15T15:52:23.986Z,2.70
2022-09-15T15:54:51.952Z,12.85
2022-09-15T15:57:30.432Z,2.42
2022-09-15T16:00:00.645Z,1.90
2022-09-15T16:02:28.737Z,3.75
2022-09-15T16:04:56.494Z,3.40
2022-09-15T16:07:31.115Z,3.45
2022-09-15T16:10:01.530Z,1.33
2022-09-15T16:12:31.943Z,1.52
2022-09-15T16:15:03.107Z,4.43
2022-09-15T16:17:30.805Z,1.50
2022-09-15T16:19:58.657Z,2.17
2022-09-15T16:22:26.411Z,2.58
2022-09-15T16:24:55.407Z,0.52
2022-09-15T16:27:23.199Z,2.25
2022-09-15T16:29:51.012Z,4.25
2022-09-15T16:32:25.701Z,2.47
2022-09-15T16:34:54.599Z,2.58
2022-09-15T16:37:22.280Z,2.88
2022-09-15T16:39:52.283Z,1.95
2022-09-15T16:42:20.141Z,4.40
2022-09-15T16:44:48.016Z,3.40
2022-09-15T16:47:15.778Z,1.15
2022-09-15T16:49:43.609Z,4.28
2022-09-15T16:52:13.718Z,1.38
2022-09-15T16:54:41.938Z,1.83
2022-09-15T16:57:09.814Z,6.15
2022-09-15T16:59:37.652Z,1.50
2022-09-15T17:02:12.435Z,3.83
2022-09-15T17:04:40.334Z,3.40
